PWSweather.com
Personal Weather Stations
Station Observations

ChardChardGB

Lat: 50.877408, Lon: -2.94964741

Elevation: 341

Station Type: WS3083

http://www.merriott-astro.co.uk/weather/index.htm

High Low Average
Temperature 55.6°F13.1°C 46.9°F8.3°C 50.3°F10.2°C
Dew Point 45.3°F7.4°C 36.9°F2.7°C 41.8°F5.4°C
Winds 7.9 mph 12.7 kmh Calm Calm 3.0 mph E4.8 kmh E
Wind Gusts 10.7 mph17.2 kmh -- 5.0 mph8.0 kmh
Humidity 86% 60% 73%
Pressure 30.21 in1023.0 mb 30.09 in1019.0 mb -
Precipitation 0.02 in0.5 mm - -
Hour Temp Dew Point Humidity Winds Wind Gusts Pressure Precip Precip Rate Daily Precip Total
12:00 AM 47.3°F8.5°C 42.1°F5.6°C 82% 2.2 mph SSW3.5 kmh SSW 3.1 mph5.0 kmh 30.09 in1019.0 mb 0.00 in0.0 mm 0.00 in0.0 mm 0.00 in0.0 mm
12:10 AM 47.3°F8.5°C 41.8°F5.4°C 81% 1.1 mph SSE1.8 kmh SSE 2.2 mph3.5 kmh 30.09 in1019.0 mb 0.00 in0.0 mm 0.00 in0.0 mm 0.00 in0.0 mm
12:20 AM 47.5°F8.6°C 41.9°F5.5°C 81% 0.2 mph ESE0.3 kmh ESE 0.7 mph1.1 kmh 30.10 in1019.3 mb 0.00 in0.0 mm 0.00 in0.0 mm 0.00 in0.0 mm
12:30 AM 47.7°F8.7°C 42.1°F5.6°C 81% 1.3 mph SE2.1 kmh SE 2.2 mph3.5 kmh 30.10 in1019.3 mb 0.00 in0.0 mm 0.00 in0.0 mm 0.00 in0.0 mm
12:40 AM 47.8°F8.8°C 42.3°F5.7°C 81% 1.9 mph S3.1 kmh S 3.8 mph6.1 kmh 30.10 in1019.3 mb 0.00 in0.0 mm 0.00 in0.0 mm 0.00 in0.0 mm
12:50 AM 47.8°F8.8°C 42.3°F5.7°C 81% 2.0 mph SSW3.2 kmh SSW 3.1 mph5.0 kmh 30.10 in1019.3 mb 0.00 in0.0 mm 0.00 in0.0 mm 0.00 in0.0 mm
01:00 AM 47.8°F8.8°C 42.3°F5.7°C 81% 1.4 mph SW2.3 kmh SW 2.2 mph3.5 kmh 30.10 in1019.3 mb 0.00 in0.0 mm 0.00 in0.0 mm 0.00 in0.0 mm
01:10 AM 48.0°F8.9°C 42.5°F5.8°C 81% 1.1 mph ESE1.8 kmh ESE 2.2 mph3.5 kmh 30.11 in1019.6 mb 0.00 in0.0 mm 0.00 in0.0 mm 0.00 in0.0 mm
01:20 AM 48.0°F8.9°C 42.5°F5.8°C 81% 0.7 mph SW1.1 kmh SW 1.6 mph2.6 kmh 30.11 in1019.6 mb 0.00 in0.0 mm 0.00 in0.0 mm 0.00 in0.0 mm
01:30 AM 48.0°F8.9°C 42.5°F5.8°C 81% 1.7 mph SSW2.7 kmh SSW 2.2 mph3.5 kmh 30.11 in1019.6 mb 0.00 in0.0 mm 0.00 in0.0 mm 0.00 in0.0 mm
01:40 AM 48.0°F8.9°C 42.5°F5.8°C 81% 2.1 mph SW3.4 kmh SW 3.1 mph5.0 kmh 30.11 in1019.6 mb 0.00 in0.0 mm 0.00 in0.0 mm 0.00 in0.0 mm
01:50 AM 48.0°F8.9°C 42.5°F5.8°C 81% 0.6 mph WSW1.0 kmh WSW 1.6 mph2.6 kmh 30.11 in1019.6 mb 0.00 in0.0 mm 0.00 in0.0 mm 0.00 in0.0 mm
02:00 AM 48.0°F8.9°C 42.5°F5.8°C 81% 0.4 mph WNW0.6 kmh WNW 1.6 mph2.6 kmh 30.11 in1019.6 mb 0.00 in0.0 mm 0.00 in0.0 mm 0.00 in0.0 mm
02:10 AM 48.0°F8.9°C 42.5°F5.8°C 81% 1.3 mph E2.1 kmh E 2.2 mph3.5 kmh 30.12 in1020.0 mb 0.00 in0.0 mm 0.00 in0.0 mm 0.00 in0.0 mm
02:20 AM 48.2°F9.0°C 42.6°F5.9°C 81% 0.8 mph SE1.3 kmh SE 2.2 mph3.5 kmh 30.12 in1020.0 mb 0.00 in0.0 mm 0.00 in0.0 mm 0.00 in0.0 mm
02:30 AM 48.2°F9.0°C 42.6°F5.9°C 81% Calm Calm -- 30.11 in1019.6 mb 0.00 in0.0 mm 0.00 in0.0 mm 0.00 in0.0 mm
02:40 AM 48.2°F9.0°C 42.6°F5.9°C 81% 0.9 mph WSW1.4 kmh WSW 1.6 mph2.6 kmh 30.11 in1019.6 mb 0.00 in0.0 mm 0.00 in0.0 mm 0.00 in0.0 mm
02:50 AM 48.2°F9.0°C 42.6°F5.9°C 81% 1.4 mph SSW2.3 kmh SSW 1.6 mph2.6 kmh 30.11 in1019.6 mb 0.00 in0.0 mm 0.00 in0.0 mm 0.00 in0.0 mm
03:00 AM 48.4°F9.1°C 42.8°F6.0°C 81% 0.7 mph SW1.1 kmh SW 1.6 mph2.6 kmh 30.11 in1019.6 mb 0.00 in0.0 mm 0.00 in0.0 mm 0.00 in0.0 mm
03:10 AM 48.2°F9.0°C 42.6°F5.9°C 81% 0.2 mph WNW0.3 kmh WNW 0.7 mph1.1 kmh 30.11 in1019.6 mb 0.00 in0.0 mm 0.00 in0.0 mm 0.00 in0.0 mm
03:20 AM 48.4°F9.1°C 42.8°F6.0°C 81% Calm Calm -- 30.11 in1019.6 mb 0.00 in0.0 mm 0.00 in0.0 mm 0.00 in0.0 mm
03:30 AM 48.4°F9.1°C 42.8°F6.0°C 81% 0.1 mph NW0.2 kmh NW 0.7 mph1.1 kmh 30.11 in1019.6 mb 0.00 in0.0 mm 0.00 in0.0 mm 0.00 in0.0 mm
03:40 AM 48.4°F9.1°C 42.8°F6.0°C 81% 0.1 mph W0.2 kmh W 0.7 mph1.1 kmh 30.11 in1019.6 mb 0.00 in0.0 mm 0.00 in0.0 mm 0.00 in0.0 mm
03:50 AM 48.6°F9.2°C 43.0°F6.1°C 81% 0.4 mph SW0.6 kmh SW 1.6 mph2.6 kmh 30.12 in1020.0 mb 0.00 in0.0 mm 0.00 in0.0 mm 0.00 in0.0 mm
04:00 AM 48.6°F9.2°C 43.3°F6.3°C 82% 1.0 mph SSW1.6 kmh SSW 2.2 mph3.5 kmh 30.12 in1020.0 mb 0.00 in0.0 mm 0.00 in0.0 mm 0.00 in0.0 mm
04:10 AM 48.6°F9.2°C 43.3°F6.3°C 82% 1.0 mph S1.6 kmh S 2.2 mph3.5 kmh 30.12 in1020.0 mb 0.00 in0.0 mm 0.00 in0.0 mm 0.00 in0.0 mm
04:20 AM 48.6°F9.2°C 43.0°F6.1°C 81% 0.3 mph W0.5 kmh W 0.7 mph1.1 kmh 30.12 in1020.0 mb 0.00 in0.0 mm 0.00 in0.0 mm 0.00 in0.0 mm
04:30 AM 48.6°F9.2°C 43.0°F6.1°C 81% Calm Calm -- 30.12 in1020.0 mb 0.00 in0.0 mm 0.00 in0.0 mm 0.00 in0.0 mm
04:40 AM 48.6°F9.2°C 43.3°F6.3°C 82% Calm Calm -- 30.13 in1020.3 mb 0.00 in0.0 mm 0.00 in0.0 mm 0.00 in0.0 mm
04:50 AM 48.4°F9.1°C 43.1°F6.2°C 82% 0.5 mph NE0.8 kmh NE 0.7 mph1.1 kmh 30.13 in1020.3 mb 0.00 in0.0 mm 0.00 in0.0 mm 0.00 in0.0 mm
05:00 AM 48.4°F9.1°C 43.1°F6.2°C 82% 0.8 mph NE1.3 kmh NE 1.6 mph2.6 kmh 30.13 in1020.3 mb 0.00 in0.0 mm 0.00 in0.0 mm 0.00 in0.0 mm
05:10 AM 48.4°F9.1°C 43.1°F6.2°C 82% 1.4 mph N2.3 kmh N 2.2 mph3.5 kmh 30.14 in1020.7 mb 0.00 in0.0 mm 0.00 in0.0 mm 0.00 in0.0 mm
05:20 AM 48.6°F9.2°C 43.3°F6.3°C 82% 3.8 mph NNE6.1 kmh NNE 7.6 mph12.2 kmh 30.14 in1020.7 mb 0.01 in0.3 mm 0.06 in1.5 mm 0.01 in0.3 mm
05:30 AM 48.0°F8.9°C 42.8°F6.0°C 82% 6.3 mph NE10.1 kmh NE 10.7 mph17.2 kmh 30.14 in1020.7 mb 0.01 in0.3 mm 0.00 in0.0 mm 0.01 in0.3 mm
05:40 AM 47.7°F8.7°C 42.8°F6.0°C 83% 6.7 mph NNE10.8 kmh NNE 9.2 mph14.8 kmh 30.14 in1020.7 mb 0.01 in0.3 mm 0.00 in0.0 mm 0.01 in0.3 mm
05:50 AM 47.5°F8.6°C 42.6°F5.9°C 83% 5.2 mph NE8.4 kmh NE 6.0 mph9.7 kmh 30.14 in1020.7 mb 0.01 in0.3 mm 0.00 in0.0 mm 0.01 in0.3 mm
06:00 AM 47.5°F8.6°C 42.9°F6.1°C 84% 4.4 mph NE7.1 kmh NE 6.0 mph9.7 kmh 30.15 in1021.0 mb 0.01 in0.3 mm 0.00 in0.0 mm 0.01 in0.3 mm
06:10 AM 47.5°F8.6°C 42.9°F6.1°C 84% 3.0 mph ENE4.8 kmh ENE 3.8 mph6.1 kmh 30.16 in1021.3 mb 0.00 in0.0 mm 0.00 in0.0 mm 0.01 in0.3 mm
06:20 AM 47.3°F8.5°C 42.7°F5.9°C 84% 3.1 mph NE5.0 kmh NE 3.8 mph6.1 kmh 30.15 in1021.0 mb 0.00 in0.0 mm 0.00 in0.0 mm 0.01 in0.3 mm
06:30 AM 47.5°F8.6°C 43.2°F6.2°C 85% 3.2 mph ENE5.1 kmh ENE 6.0 mph9.7 kmh 30.16 in1021.3 mb 0.00 in0.0 mm 0.00 in0.0 mm 0.01 in0.3 mm
06:40 AM 47.5°F8.6°C 43.2°F6.2°C 85% 1.8 mph NE2.9 kmh NE 3.1 mph5.0 kmh 30.16 in1021.3 mb 0.00 in0.0 mm 0.00 in0.0 mm 0.01 in0.3 mm
06:50 AM 47.7°F8.7°C 43.4°F6.3°C 85% 1.6 mph NE2.6 kmh NE 2.2 mph3.5 kmh 30.16 in1021.3 mb 0.00 in0.0 mm 0.00 in0.0 mm 0.01 in0.3 mm
07:00 AM 47.7°F8.7°C 43.4°F6.3°C 85% 2.5 mph NE4.0 kmh NE 3.8 mph6.1 kmh 30.16 in1021.3 mb 0.00 in0.0 mm 0.00 in0.0 mm 0.01 in0.3 mm
07:10 AM 48.0°F8.9°C 44.0°F6.7°C 86% 1.8 mph NNW2.9 kmh NNW 3.1 mph5.0 kmh 30.17 in1021.7 mb 0.00 in0.0 mm 0.00 in0.0 mm 0.01 in0.3 mm
07:20 AM 48.0°F8.9°C 44.0°F6.7°C 86% 2.3 mph NNW3.7 kmh NNW 3.8 mph6.1 kmh 30.17 in1021.7 mb 0.00 in0.0 mm 0.00 in0.0 mm 0.01 in0.3 mm
07:30 AM 48.2°F9.0°C 44.2°F6.8°C 86% 2.1 mph N3.4 kmh N 3.8 mph6.1 kmh 30.18 in1022.0 mb 0.00 in0.0 mm 0.00 in0.0 mm 0.01 in0.3 mm
07:40 AM 48.4°F9.1°C 44.4°F6.9°C 86% 2.7 mph NNE4.3 kmh NNE 4.5 mph7.2 kmh 30.18 in1022.0 mb 0.00 in0.0 mm 0.00 in0.0 mm 0.01 in0.3 mm
07:50 AM 48.4°F9.1°C 44.4°F6.9°C 86% 3.0 mph NE4.8 kmh NE 4.5 mph7.2 kmh 30.19 in1022.4 mb 0.00 in0.0 mm 0.00 in0.0 mm 0.01 in0.3 mm
08:00 AM 48.7°F9.3°C 44.7°F7.1°C 86% 2.7 mph NE4.3 kmh NE 3.8 mph6.1 kmh 30.19 in1022.4 mb 0.00 in0.0 mm 0.00 in0.0 mm 0.01 in0.3 mm
08:10 AM 48.7°F9.3°C 44.7°F7.1°C 86% 4.3 mph NNE6.9 kmh NNE 5.4 mph8.7 kmh 30.19 in1022.4 mb 0.00 in0.0 mm 0.00 in0.0 mm 0.01 in0.3 mm
08:20 AM 48.9°F9.4°C 44.9°F7.2°C 86% 3.7 mph ENE6.0 kmh ENE 5.4 mph8.7 kmh 30.19 in1022.4 mb 0.00 in0.0 mm 0.00 in0.0 mm 0.01 in0.3 mm
08:30 AM 49.3°F9.6°C 45.3°F7.4°C 86% 3.2 mph NE5.1 kmh NE 4.5 mph7.2 kmh 30.20 in1022.7 mb 0.00 in0.0 mm 0.00 in0.0 mm 0.01 in0.3 mm
08:40 AM 49.3°F9.6°C 45.3°F7.4°C 86% 4.7 mph N7.6 kmh N 6.0 mph9.7 kmh 30.19 in1022.4 mb 0.00 in0.0 mm 0.00 in0.0 mm 0.01 in0.3 mm
08:50 AM 49.3°F9.6°C 45.3°F7.4°C 86% 5.1 mph NNE8.2 kmh NNE 6.9 mph11.1 kmh 30.19 in1022.4 mb 0.00 in0.0 mm 0.00 in0.0 mm 0.01 in0.3 mm
09:00 AM 49.6°F9.8°C 45.3°F7.4°C 85% 3.9 mph NE6.3 kmh NE 5.4 mph8.7 kmh 30.20 in1022.7 mb 0.00 in0.0 mm 0.00 in0.0 mm 0.01 in0.3 mm
09:10 AM 49.5°F9.7°C 44.8°F7.1°C 84% 4.7 mph NE7.6 kmh NE 6.9 mph11.1 kmh 30.20 in1022.7 mb 0.00 in0.0 mm 0.00 in0.0 mm 0.01 in0.3 mm
09:20 AM 49.3°F9.6°C 44.0°F6.7°C 82% 5.4 mph NE8.7 kmh NE 9.2 mph14.8 kmh 30.20 in1022.7 mb 0.00 in0.0 mm 0.00 in0.0 mm 0.01 in0.3 mm
09:30 AM 49.1°F9.5°C 43.5°F6.4°C 81% 6.1 mph ENE9.8 kmh ENE 8.3 mph13.4 kmh 30.20 in1022.7 mb 0.00 in0.0 mm 0.00 in0.0 mm 0.01 in0.3 mm
09:40 AM 49.5°F9.7°C 43.6°F6.4°C 80% 5.3 mph NE8.5 kmh NE 7.6 mph12.2 kmh 30.20 in1022.7 mb 0.00 in0.0 mm 0.00 in0.0 mm 0.01 in0.3 mm
09:50 AM 50.2°F10.1°C 43.9°F6.6°C 79% 5.2 mph NE8.4 kmh NE 7.6 mph12.2 kmh 30.20 in1022.7 mb 0.00 in0.0 mm 0.00 in0.0 mm 0.01 in0.3 mm
10:00 AM 50.4°F10.2°C 43.1°F6.2°C 76% 5.8 mph ENE9.3 kmh ENE 6.9 mph11.1 kmh 30.20 in1022.7 mb 0.00 in0.0 mm 0.00 in0.0 mm 0.01 in0.3 mm
10:10 AM 50.7°F10.4°C 43.1°F6.2°C 75% 4.2 mph NE6.8 kmh NE 6.9 mph11.1 kmh 30.21 in1023.0 mb 0.00 in0.0 mm 0.00 in0.0 mm 0.01 in0.3 mm
10:20 AM 50.7°F10.4°C 42.7°F5.9°C 74% 5.6 mph ENE9.0 kmh ENE 7.6 mph12.2 kmh 30.20 in1022.7 mb 0.00 in0.0 mm 0.00 in0.0 mm 0.01 in0.3 mm
10:30 AM 51.4°F10.8°C 42.7°F5.9°C 72% 6.1 mph NE9.8 kmh NE 7.6 mph12.2 kmh 30.20 in1022.7 mb 0.00 in0.0 mm 0.00 in0.0 mm 0.01 in0.3 mm
10:40 AM 51.4°F10.8°C 42.4°F5.8°C 71% 7.8 mph NE12.6 kmh NE 10.7 mph17.2 kmh 30.20 in1022.7 mb 0.00 in0.0 mm 0.00 in0.0 mm 0.01 in0.3 mm
10:50 AM 51.4°F10.8°C 42.4°F5.8°C 71% 7.9 mph ENE12.7 kmh ENE 9.2 mph14.8 kmh 30.20 in1022.7 mb 0.00 in0.0 mm 0.00 in0.0 mm 0.01 in0.3 mm
11:00 AM 52.0°F11.1°C 42.9°F6.1°C 71% 4.2 mph NE6.8 kmh NE 6.9 mph11.1 kmh 30.20 in1022.7 mb 0.00 in0.0 mm 0.00 in0.0 mm 0.01 in0.3 mm
11:10 AM 51.3°F10.7°C 41.8°F5.4°C 70% 7.1 mph NE11.4 kmh NE 10.7 mph17.2 kmh 30.20 in1022.7 mb 0.00 in0.0 mm 0.00 in0.0 mm 0.01 in0.3 mm
11:20 AM 51.3°F10.7°C 42.2°F5.7°C 71% 5.6 mph NE9.0 kmh NE 7.6 mph12.2 kmh 30.20 in1022.7 mb 0.00 in0.0 mm 0.00 in0.0 mm 0.01 in0.3 mm
11:30 AM 52.0°F11.1°C 42.5°F5.8°C 70% 4.6 mph NNE7.4 kmh NNE 6.9 mph11.1 kmh 30.20 in1022.7 mb 0.00 in0.0 mm 0.00 in0.0 mm 0.01 in0.3 mm
11:40 AM 52.7°F11.5°C 43.2°F6.2°C 70% 5.0 mph NE8.0 kmh NE 6.9 mph11.1 kmh 30.20 in1022.7 mb 0.00 in0.0 mm 0.00 in0.0 mm 0.01 in0.3 mm
11:50 AM 52.0°F11.1°C 42.1°F5.6°C 69% 6.1 mph NE9.8 kmh NE 8.3 mph13.4 kmh 30.20 in1022.7 mb 0.00 in0.0 mm 0.00 in0.0 mm 0.01 in0.3 mm
12:00 PM 51.8°F11.0°C 42.3°F5.7°C 70% 5.2 mph ENE8.4 kmh ENE 6.9 mph11.1 kmh 30.20 in1022.7 mb 0.00 in0.0 mm 0.00 in0.0 mm 0.01 in0.3 mm
12:10 PM 51.4°F10.8°C 42.0°F5.6°C 70% 6.3 mph NE10.1 kmh NE 8.3 mph13.4 kmh 30.21 in1023.0 mb 0.00 in0.0 mm 0.00 in0.0 mm 0.01 in0.3 mm
12:20 PM 51.3°F10.7°C 41.8°F5.4°C 70% 5.7 mph ENE9.2 kmh ENE 9.2 mph14.8 kmh 30.20 in1022.7 mb 0.00 in0.0 mm 0.00 in0.0 mm 0.01 in0.3 mm
12:30 PM 51.8°F11.0°C 42.7°F5.9°C 71% 4.3 mph NE6.9 kmh NE 6.9 mph11.1 kmh 30.20 in1022.7 mb 0.00 in0.0 mm 0.00 in0.0 mm 0.01 in0.3 mm
12:40 PM 52.2°F11.2°C 42.7°F5.9°C 70% 4.8 mph NE7.7 kmh NE 5.4 mph8.7 kmh 30.20 in1022.7 mb 0.00 in0.0 mm 0.00 in0.0 mm 0.01 in0.3 mm
12:50 PM 53.4°F11.9°C 43.9°F6.6°C 70% 4.0 mph NE6.4 kmh NE 7.6 mph12.2 kmh 30.20 in1022.7 mb 0.00 in0.0 mm 0.00 in0.0 mm 0.01 in0.3 mm
01:00 PM 54.3°F12.4°C 44.4°F6.9°C 69% 4.6 mph NE7.4 kmh NE 7.6 mph12.2 kmh 30.20 in1022.7 mb 0.00 in0.0 mm 0.00 in0.0 mm 0.01 in0.3 mm
01:10 PM 55.0°F12.8°C 42.7°F5.9°C 63% 4.1 mph ENE6.6 kmh ENE 6.0 mph9.7 kmh 30.20 in1022.7 mb 0.00 in0.0 mm 0.00 in0.0 mm 0.01 in0.3 mm
01:20 PM 55.4°F13.0°C 42.6°F5.9°C 62% 4.7 mph ENE7.6 kmh ENE 6.0 mph9.7 kmh 30.20 in1022.7 mb 0.01 in0.3 mm 0.06 in1.5 mm 0.02 in0.5 mm
01:30 PM 55.6°F13.1°C 42.4°F5.8°C 61% 6.1 mph NE9.8 kmh NE 8.3 mph13.4 kmh 30.19 in1022.4 mb 0.01 in0.3 mm 0.00 in0.0 mm 0.02 in0.5 mm
01:40 PM 55.2°F12.9°C 42.4°F5.8°C 62% 5.2 mph ENE8.4 kmh ENE 8.3 mph13.4 kmh 30.20 in1022.7 mb 0.01 in0.3 mm 0.00 in0.0 mm 0.02 in0.5 mm
01:50 PM 54.9°F12.7°C 42.1°F5.6°C 62% 5.3 mph ENE8.5 kmh ENE 6.9 mph11.1 kmh 30.19 in1022.4 mb 0.01 in0.3 mm 0.00 in0.0 mm 0.02 in0.5 mm
02:00 PM 54.9°F12.7°C 42.1°F5.6°C 62% 3.8 mph NE6.1 kmh NE 5.4 mph8.7 kmh 30.19 in1022.4 mb 0.01 in0.3 mm 0.00 in0.0 mm 0.02 in0.5 mm
02:10 PM 54.7°F12.6°C 41.9°F5.5°C 62% 4.9 mph NE7.9 kmh NE 7.6 mph12.2 kmh 30.18 in1022.0 mb 0.01 in0.3 mm 0.00 in0.0 mm 0.02 in0.5 mm
02:20 PM 54.3°F12.4°C 43.2°F6.2°C 66% 5.8 mph NE9.3 kmh NE 8.3 mph13.4 kmh 30.18 in1022.0 mb 0.00 in0.0 mm 0.00 in0.0 mm 0.02 in0.5 mm
02:30 PM 54.3°F12.4°C 42.8°F6.0°C 65% 5.7 mph NE9.2 kmh NE 8.3 mph13.4 kmh 30.18 in1022.0 mb 0.00 in0.0 mm 0.00 in0.0 mm 0.02 in0.5 mm
02:40 PM 54.3°F12.4°C 42.4°F5.8°C 64% 6.1 mph NE9.8 kmh NE 9.2 mph14.8 kmh 30.19 in1022.4 mb 0.00 in0.0 mm 0.00 in0.0 mm 0.02 in0.5 mm
02:50 PM 54.3°F12.4°C 42.4°F5.8°C 64% 5.8 mph NE9.3 kmh NE 8.3 mph13.4 kmh 30.18 in1022.0 mb 0.00 in0.0 mm 0.00 in0.0 mm 0.02 in0.5 mm
03:00 PM 54.7°F12.6°C 41.5°F5.3°C 61% 4.8 mph NE7.7 kmh NE 7.6 mph12.2 kmh 30.18 in1022.0 mb 0.00 in0.0 mm 0.00 in0.0 mm 0.02 in0.5 mm
03:10 PM 54.3°F12.4°C 42.4°F5.8°C 64% 4.9 mph ENE7.9 kmh ENE 8.3 mph13.4 kmh 30.18 in1022.0 mb 0.00 in0.0 mm 0.00 in0.0 mm 0.02 in0.5 mm
03:20 PM 54.5°F12.5°C 40.9°F4.9°C 60% 5.4 mph NE8.7 kmh NE 7.6 mph12.2 kmh 30.18 in1022.0 mb 0.00 in0.0 mm 0.00 in0.0 mm 0.02 in0.5 mm
03:30 PM 54.5°F12.5°C 40.9°F4.9°C 60% 4.4 mph E7.1 kmh E 6.9 mph11.1 kmh 30.18 in1022.0 mb 0.00 in0.0 mm 0.00 in0.0 mm 0.02 in0.5 mm
03:40 PM 54.5°F12.5°C 40.9°F4.9°C 60% 3.4 mph NE5.5 kmh NE 6.0 mph9.7 kmh 30.17 in1021.7 mb 0.00 in0.0 mm 0.00 in0.0 mm 0.02 in0.5 mm
03:50 PM 54.1°F12.3°C 41.8°F5.4°C 63% 4.2 mph NE6.8 kmh NE 6.9 mph11.1 kmh 30.17 in1021.7 mb 0.00 in0.0 mm 0.00 in0.0 mm 0.02 in0.5 mm
04:00 PM 54.0°F12.2°C 42.1°F5.6°C 64% 3.1 mph ENE5.0 kmh ENE 4.5 mph7.2 kmh 30.17 in1021.7 mb 0.00 in0.0 mm 0.00 in0.0 mm 0.02 in0.5 mm
04:10 PM 54.0°F12.2°C 41.7°F5.4°C 63% 3.4 mph NE5.5 kmh NE 5.4 mph8.7 kmh 30.17 in1021.7 mb 0.00 in0.0 mm 0.00 in0.0 mm 0.02 in0.5 mm
04:20 PM 54.5°F12.5°C 41.3°F5.2°C 61% 1.3 mph NE2.1 kmh NE 2.2 mph3.5 kmh 30.18 in1022.0 mb 0.00 in0.0 mm 0.00 in0.0 mm 0.02 in0.5 mm
04:30 PM 54.3°F12.4°C 42.0°F5.6°C 63% 2.5 mph NE4.0 kmh NE 3.8 mph6.1 kmh 30.17 in1021.7 mb 0.00 in0.0 mm 0.00 in0.0 mm 0.02 in0.5 mm
04:40 PM 54.0°F12.2°C 41.2°F5.1°C 62% 3.6 mph NNE5.8 kmh NNE 6.0 mph9.7 kmh 30.17 in1021.7 mb 0.00 in0.0 mm 0.00 in0.0 mm 0.02 in0.5 mm
04:50 PM 53.6°F12.0°C 40.5°F4.7°C 61% 4.0 mph NE6.4 kmh NE 5.4 mph8.7 kmh 30.18 in1022.0 mb 0.00 in0.0 mm 0.00 in0.0 mm 0.02 in0.5 mm
05:00 PM 53.6°F12.0°C 40.9°F4.9°C 62% 3.6 mph E5.8 kmh E 5.4 mph8.7 kmh 30.18 in1022.0 mb 0.00 in0.0 mm 0.00 in0.0 mm 0.02 in0.5 mm
05:10 PM 53.6°F12.0°C 40.9°F4.9°C 62% 3.3 mph NE5.3 kmh NE 4.5 mph7.2 kmh 30.18 in1022.0 mb 0.00 in0.0 mm 0.00 in0.0 mm 0.02 in0.5 mm
05:20 PM 53.8°F12.1°C 41.5°F5.3°C 63% 1.9 mph NE3.1 kmh NE 3.1 mph5.0 kmh 30.18 in1022.0 mb 0.00 in0.0 mm 0.00 in0.0 mm 0.02 in0.5 mm
05:30 PM 53.8°F12.1°C 41.5°F5.3°C 63% 1.9 mph NNE3.1 kmh NNE 3.1 mph5.0 kmh 30.17 in1021.7 mb 0.00 in0.0 mm 0.00 in0.0 mm 0.02 in0.5 mm
05:40 PM 53.6°F12.0°C 41.3°F5.2°C 63% 2.3 mph NE3.7 kmh NE 3.1 mph5.0 kmh 30.18 in1022.0 mb 0.00 in0.0 mm 0.00 in0.0 mm 0.02 in0.5 mm
05:50 PM 53.2°F11.8°C 41.0°F5.0°C 63% 2.1 mph NE3.4 kmh NE 3.1 mph5.0 kmh 30.18 in1022.0 mb 0.00 in0.0 mm 0.00 in0.0 mm 0.02 in0.5 mm
06:00 PM 52.9°F11.6°C 40.6°F4.8°C 63% 2.4 mph NE3.9 kmh NE 3.8 mph6.1 kmh 30.18 in1022.0 mb 0.00 in0.0 mm 0.00 in0.0 mm 0.02 in0.5 mm
06:10 PM 52.7°F11.5°C 40.9°F4.9°C 64% 1.5 mph NE2.4 kmh NE 2.2 mph3.5 kmh 30.18 in1022.0 mb 0.00 in0.0 mm 0.00 in0.0 mm 0.02 in0.5 mm
06:20 PM 52.5°F11.4°C 40.7°F4.8°C 64% 0.4 mph NE0.6 kmh NE 1.6 mph2.6 kmh 30.19 in1022.4 mb 0.00 in0.0 mm 0.00 in0.0 mm 0.02 in0.5 mm
06:30 PM 52.2°F11.2°C 40.4°F4.7°C 64% Calm Calm -- 30.19 in1022.4 mb 0.00 in0.0 mm 0.00 in0.0 mm 0.02 in0.5 mm
06:40 PM 52.0°F11.1°C 40.6°F4.8°C 65% 0.1 mph NE0.2 kmh NE 0.7 mph1.1 kmh 30.19 in1022.4 mb 0.00 in0.0 mm 0.00 in0.0 mm 0.02 in0.5 mm
06:50 PM 51.8°F11.0°C 40.4°F4.7°C 65% Calm Calm -- 30.19 in1022.4 mb 0.00 in0.0 mm 0.00 in0.0 mm 0.02 in0.5 mm
07:00 PM 51.6°F10.9°C 40.6°F4.8°C 66% 0.2 mph NW0.3 kmh NW 0.7 mph1.1 kmh 30.19 in1022.4 mb 0.00 in0.0 mm 0.00 in0.0 mm 0.02 in0.5 mm
07:10 PM 51.6°F10.9°C 41.4°F5.2°C 68% 0.7 mph N1.1 kmh N 1.6 mph2.6 kmh 30.19 in1022.4 mb 0.00 in0.0 mm 0.00 in0.0 mm 0.02 in0.5 mm
07:20 PM 51.4°F10.8°C 41.6°F5.3°C 69% 1.5 mph NE2.4 kmh NE 2.2 mph3.5 kmh 30.19 in1022.4 mb 0.00 in0.0 mm 0.00 in0.0 mm 0.02 in0.5 mm
07:30 PM 51.1°F10.6°C 41.3°F5.2°C 69% 3.1 mph NE5.0 kmh NE 6.0 mph9.7 kmh 30.19 in1022.4 mb 0.00 in0.0 mm 0.00 in0.0 mm 0.02 in0.5 mm
07:40 PM 50.7°F10.4°C 40.9°F4.9°C 69% 4.3 mph NE6.9 kmh NE 6.0 mph9.7 kmh 30.20 in1022.7 mb 0.00 in0.0 mm 0.00 in0.0 mm 0.02 in0.5 mm
07:50 PM 50.5°F10.3°C 40.0°F4.4°C 67% 4.8 mph ENE7.7 kmh ENE 7.6 mph12.2 kmh 30.20 in1022.7 mb 0.00 in0.0 mm 0.00 in0.0 mm 0.02 in0.5 mm
08:00 PM 50.4°F10.2°C 39.4°F4.1°C 66% 4.4 mph NE7.1 kmh NE 6.0 mph9.7 kmh 30.20 in1022.7 mb 0.00 in0.0 mm 0.00 in0.0 mm 0.02 in0.5 mm
08:10 PM 50.2°F10.1°C 39.3°F4.1°C 66% 3.7 mph NNE6.0 kmh NNE 4.5 mph7.2 kmh 30.20 in1022.7 mb 0.00 in0.0 mm 0.00 in0.0 mm 0.02 in0.5 mm
08:20 PM 50.0°F10.0°C 39.1°F3.9°C 66% 4.3 mph NE6.9 kmh NE 6.0 mph9.7 kmh 30.21 in1023.0 mb 0.00 in0.0 mm 0.00 in0.0 mm 0.02 in0.5 mm
08:30 PM 49.8°F9.9°C 38.9°F3.8°C 66% 3.7 mph NNE6.0 kmh NNE 5.4 mph8.7 kmh 30.20 in1022.7 mb 0.00 in0.0 mm 0.00 in0.0 mm 0.02 in0.5 mm
08:40 PM 49.6°F9.8°C 38.8°F3.8°C 66% 3.6 mph NE5.8 kmh NE 5.4 mph8.7 kmh 30.20 in1022.7 mb 0.00 in0.0 mm 0.00 in0.0 mm 0.02 in0.5 mm
08:50 PM 49.3°F9.6°C 38.8°F3.8°C 67% 2.9 mph N4.7 kmh N 3.8 mph6.1 kmh 30.20 in1022.7 mb 0.00 in0.0 mm 0.00 in0.0 mm 0.02 in0.5 mm
09:00 PM 49.3°F9.6°C 38.8°F3.8°C 67% 2.9 mph ENE4.7 kmh ENE 3.8 mph6.1 kmh 30.21 in1023.0 mb 0.00 in0.0 mm 0.00 in0.0 mm 0.02 in0.5 mm
09:10 PM 49.1°F9.5°C 39.0°F3.9°C 68% 2.7 mph NNE4.3 kmh NNE 3.8 mph6.1 kmh 30.21 in1023.0 mb 0.00 in0.0 mm 0.00 in0.0 mm 0.02 in0.5 mm
09:20 PM 48.9°F9.4°C 38.5°F3.6°C 67% 2.8 mph NE4.5 kmh NE 3.8 mph6.1 kmh 30.21 in1023.0 mb 0.00 in0.0 mm 0.00 in0.0 mm 0.02 in0.5 mm
09:30 PM 48.7°F9.3°C 38.3°F3.5°C 67% 2.3 mph NE3.7 kmh NE 3.8 mph6.1 kmh 30.20 in1022.7 mb 0.00 in0.0 mm 0.00 in0.0 mm 0.02 in0.5 mm
09:40 PM 48.6°F9.2°C 38.5°F3.6°C 68% 2.8 mph NNE4.5 kmh NNE 3.8 mph6.1 kmh 30.21 in1023.0 mb 0.00 in0.0 mm 0.00 in0.0 mm 0.02 in0.5 mm
09:50 PM 48.4°F9.1°C 37.9°F3.3°C 67% 2.7 mph NNE4.3 kmh NNE 3.8 mph6.1 kmh 30.21 in1023.0 mb 0.00 in0.0 mm 0.00 in0.0 mm 0.02 in0.5 mm
10:00 PM 48.4°F9.1°C 37.9°F3.3°C 67% 2.6 mph NNE4.2 kmh NNE 4.5 mph7.2 kmh 30.20 in1022.7 mb 0.00 in0.0 mm 0.00 in0.0 mm 0.02 in0.5 mm
10:10 PM 48.2°F9.0°C 37.8°F3.2°C 67% 2.9 mph NE4.7 kmh NE 3.8 mph6.1 kmh 30.21 in1023.0 mb 0.00 in0.0 mm 0.00 in0.0 mm 0.02 in0.5 mm
10:20 PM 48.0°F8.9°C 38.0°F3.3°C 68% 2.5 mph NE4.0 kmh NE 3.1 mph5.0 kmh 30.21 in1023.0 mb 0.00 in0.0 mm 0.00 in0.0 mm 0.02 in0.5 mm
10:30 PM 47.8°F8.8°C 38.2°F3.4°C 69% 2.1 mph NE3.4 kmh NE 3.1 mph5.0 kmh 30.21 in1023.0 mb 0.00 in0.0 mm 0.00 in0.0 mm 0.02 in0.5 mm
10:40 PM 47.7°F8.7°C 38.4°F3.6°C 70% 1.6 mph N2.6 kmh N 2.2 mph3.5 kmh 30.20 in1022.7 mb 0.00 in0.0 mm 0.00 in0.0 mm 0.02 in0.5 mm
10:50 PM 47.7°F8.7°C 38.4°F3.6°C 70% 1.6 mph NNE2.6 kmh NNE 2.2 mph3.5 kmh 30.20 in1022.7 mb 0.00 in0.0 mm 0.00 in0.0 mm 0.02 in0.5 mm
11:00 PM 47.5°F8.6°C 38.2°F3.4°C 70% 1.3 mph NE2.1 kmh NE 3.1 mph5.0 kmh 30.20 in1022.7 mb 0.00 in0.0 mm 0.00 in0.0 mm 0.02 in0.5 mm
11:10 PM 47.5°F8.6°C 38.2°F3.4°C 70% 1.7 mph N2.7 kmh N 3.1 mph5.0 kmh 30.21 in1023.0 mb 0.00 in0.0 mm 0.00 in0.0 mm 0.02 in0.5 mm
11:20 PM 47.5°F8.6°C 37.8°F3.2°C 69% 2.6 mph N4.2 kmh N 3.8 mph6.1 kmh 30.21 in1023.0 mb 0.00 in0.0 mm 0.00 in0.0 mm 0.02 in0.5 mm
11:30 PM 47.3°F8.5°C 37.3°F2.9°C 68% 2.1 mph N3.4 kmh N 3.1 mph5.0 kmh 30.21 in1023.0 mb 0.00 in0.0 mm 0.00 in0.0 mm 0.02 in0.5 mm
11:40 PM 47.1°F8.4°C 37.1°F2.8°C 68% 2.2 mph N3.5 kmh N 3.1 mph5.0 kmh 30.21 in1023.0 mb 0.00 in0.0 mm 0.00 in0.0 mm 0.02 in0.5 mm
11:50 PM 46.9°F8.3°C 36.9°F2.7°C 68% 2.7 mph NNW4.3 kmh NNW 3.8 mph6.1 kmh 30.21 in1023.0 mb 0.00 in0.0 mm 0.00 in0.0 mm 0.02 in0.5 mm